sensor_id;sensor_type;location;lat;lon;timestamp;pressure;altitude;pressure_sealevel;temperature;humidity
6038;BME280;3047;42.600;23.470;2023-03-19T00:01:33;93522.44;;;2.26;84.45
6038;BME280;3047;42.600;23.470;2023-03-19T00:04:00;93524.25;;;2.42;84.30
6038;BME280;3047;42.600;23.470;2023-03-19T00:06:26;93519.28;;;2.45;84.25
6038;BME280;3047;42.600;23.470;2023-03-19T00:08:53;93517.78;;;2.60;84.66
6038;BME280;3047;42.600;23.470;2023-03-19T00:11:21;93513.66;;;2.65;83.15
6038;BME280;3047;42.600;23.470;2023-03-19T00:13:48;93513.75;;;2.76;81.98
6038;BME280;3047;42.600;23.470;2023-03-19T00:16:15;93512.94;;;2.81;80.78
6038;BME280;3047;42.600;23.470;2023-03-19T00:18:41;93509.66;;;2.87;79.34
6038;BME280;3047;42.600;23.470;2023-03-19T00:21:09;93506.38;;;2.92;79.21
6038;BME280;3047;42.600;23.470;2023-03-19T00:23:36;93510.47;;;2.87;79.18
6038;BME280;3047;42.600;23.470;2023-03-19T00:26:03;93476.25;;;2.66;79.13
6038;BME280;3047;42.600;23.470;2023-03-19T00:28:31;93474.63;;;2.73;79.38
6038;BME280;3047;42.600;23.470;2023-03-19T00:31:06;93496.38;;;2.89;79.81
6038;BME280;3047;42.600;23.470;2023-03-19T00:33:32;93489.69;;;2.85;80.49
6038;BME280;3047;42.600;23.470;2023-03-19T00:35:59;93496.41;;;2.95;80.51
6038;BME280;3047;42.600;23.470;2023-03-19T00:38:26;93494.63;;;2.78;81.06
6038;BME280;3047;42.600;23.470;2023-03-19T00:40:52;93491.88;;;2.45;82.37
6038;BME280;3047;42.600;23.470;2023-03-19T00:43:19;93474.41;;;2.45;82.04
6038;BME280;3047;42.600;23.470;2023-03-19T00:45:47;93482.97;;;2.77;80.75
6038;BME280;3047;42.600;23.470;2023-03-19T00:48:14;93474.66;;;2.79;79.85
6038;BME280;3047;42.600;23.470;2023-03-19T00:50:41;93480.47;;;2.72;80.28
6038;BME280;3047;42.600;23.470;2023-03-19T00:53:08;93482.94;;;2.75;79.50
6038;BME280;3047;42.600;23.470;2023-03-19T00:55:34;93482.97;;;2.77;79.77
6038;BME280;3047;42.600;23.470;2023-03-19T00:58:01;93462.81;;;2.51;81.49
6038;BME280;3047;42.600;23.470;2023-03-19T01:00:28;93475.28;;;2.51;80.80
6038;BME280;3047;42.600;23.470;2023-03-19T01:02:56;93487.78;;;2.55;80.08
6038;BME280;3047;42.600;23.470;2023-03-19T01:05:23;93453.47;;;2.23;80.37
6038;BME280;3047;42.600;23.470;2023-03-19T01:07:50;93483.47;;;2.34;80.21
6038;BME280;3047;42.600;23.470;2023-03-19T01:10:17;93485.19;;;2.43;80.44
6038;BME280;3047;42.600;23.470;2023-03-19T01:12:44;93473.50;;;2.34;82.10
6038;BME280;3047;42.600;23.470;2023-03-19T01:15:10;93477.81;;;2.52;80.87
6038;BME280;3047;42.600;23.470;2023-03-19T01:17:37;93453.50;;;2.28;80.85
6038;BME280;3047;42.600;23.470;2023-03-19T01:20:06;93475.22;;;2.41;81.02
6038;BME280;3047;42.600;23.470;2023-03-19T01:22:37;93481.03;;;2.42;81.49
6038;BME280;3047;42.600;23.470;2023-03-19T01:25:05;93460.28;;;2.44;80.58
6038;BME280;3047;42.600;23.470;2023-03-19T01:27:32;93471.19;;;2.56;80.27
6038;BME280;3047;42.600;23.470;2023-03-19T01:29:59;93472.09;;;2.65;80.30
6038;BME280;3047;42.600;23.470;2023-03-19T01:32:25;93472.19;;;2.76;81.31
6038;BME280;3047;42.600;23.470;2023-03-19T01:34:52;93467.09;;;2.65;81.17
6038;BME280;3047;42.600;23.470;2023-03-19T01:37:20;93468.72;;;2.60;80.65
6038;BME280;3047;42.600;23.470;2023-03-19T01:39:47;93462.78;;;2.44;81.96
6038;BME280;3047;42.600;23.470;2023-03-19T01:42:14;93458.69;;;2.54;81.44
6038;BME280;3047;42.600;23.470;2023-03-19T01:44:41;93456.03;;;2.34;84.07
6038;BME280;3047;42.600;23.470;2023-03-19T01:47:15;93461.94;;;2.45;83.04
6038;BME280;3047;42.600;23.470;2023-03-19T01:49:43;93456.91;;;2.36;83.63
6038;BME280;3047;42.600;23.470;2023-03-19T01:52:12;93462.63;;;2.25;84.55
6038;BME280;3047;42.600;23.470;2023-03-19T01:54:43;93454.34;;;2.29;84.05
6038;BME280;3047;42.600;23.470;2023-03-19T01:57:12;93463.56;;;2.37;83.32
6038;BME280;3047;42.600;23.470;2023-03-19T01:59:41;93467.63;;;2.31;83.28
6038;BME280;3047;42.600;23.470;2023-03-19T02:02:12;93464.41;;;2.39;83.49
6038;BME280;3047;42.600;23.470;2023-03-19T02:04:43;93466.91;;;2.41;83.58
6038;BME280;3047;42.600;23.470;2023-03-19T02:07:12;93462.72;;;2.37;82.87
6038;BME280;3047;42.600;23.470;2023-03-19T02:09:41;93473.59;;;2.45;82.34
6038;BME280;3047;42.600;23.470;2023-03-19T02:12:08;93470.19;;;2.38;85.62
6038;BME280;3047;42.600;23.470;2023-03-19T02:14:35;93466.91;;;2.39;86.50
6038;BME280;3047;42.600;23.470;2023-03-19T02:17:02;93471.09;;;2.46;85.99
6038;BME280;3047;42.600;23.470;2023-03-19T02:19:33;93465.91;;;2.20;85.45
6038;BME280;3047;42.600;23.470;2023-03-19T02:22:03;93409.16;;;1.92;84.75
6038;BME280;3047;42.600;23.470;2023-03-19T02:24:33;93470.22;;;2.40;84.48
6038;BME280;3047;42.600;23.470;2023-03-19T02:27:05;93469.41;;;2.39;83.34
6038;BME280;3047;42.600;23.470;2023-03-19T02:29:33;93474.38;;;2.41;83.61
6038;BME280;3047;42.600;23.470;2023-03-19T02:32:00;93472.53;;;2.20;85.33
6038;BME280;3047;42.600;23.470;2023-03-19T02:34:36;93474.13;;;2.12;86.08
6038;BME280;3047;42.600;23.470;2023-03-19T02:37:08;93467.38;;;1.98;86.09
6038;BME280;3047;42.600;23.470;2023-03-19T02:39:42;93384.63;;;1.42;86.52
6038;BME280;3047;42.600;23.470;2023-03-19T02:42:14;93465.72;;;1.99;85.63
6038;BME280;3047;42.600;23.470;2023-03-19T02:44:41;93458.16;;;1.94;85.01
6038;BME280;3047;42.600;23.470;2023-03-19T02:47:08;93462.28;;;1.89;85.88
6038;BME280;3047;42.600;23.470;2023-03-19T02:49:34;93474.00;;;2.00;85.67
6038;BME280;3047;42.600;23.470;2023-03-19T02:52:01;93464.91;;;2.03;85.06
6038;BME280;3047;42.600;23.470;2023-03-19T02:54:28;93468.91;;;1.90;85.28
6038;BME280;3047;42.600;23.470;2023-03-19T02:56:55;93463.13;;;1.93;86.14
6038;BME280;3047;42.600;23.470;2023-03-19T02:59:23;93460.81;;;2.08;85.71
6038;BME280;3047;42.600;23.470;2023-03-19T03:01:49;93468.19;;;1.99;85.15
6038;BME280;3047;42.600;23.470;2023-03-19T03:04:16;93467.47;;;2.11;84.20
6038;BME280;3047;42.600;23.470;2023-03-19T03:06:43;93467.56;;;2.20;82.64
6038;BME280;3047;42.600;23.470;2023-03-19T03:09:10;93481.66;;;2.15;83.79
6038;BME280;3047;42.600;23.470;2023-03-19T03:11:38;93476.53;;;2.04;83.66
6038;BME280;3047;42.600;23.470;2023-03-19T03:14:06;93473.31;;;2.11;84.38
6038;BME280;3047;42.600;23.470;2023-03-19T03:16:34;93445.66;;;1.90;84.28
6038;BME280;3047;42.600;23.470;2023-03-19T03:19:02;93431.44;;;1.75;83.86
6038;BME280;3047;42.600;23.470;2023-03-19T03:21:30;93479.03;;;2.04;84.04
6038;BME280;3047;42.600;23.470;2023-03-19T03:23:56;93491.44;;;2.01;85.15
6038;BME280;3047;42.600;23.470;2023-03-19T03:26:23;93485.81;;;2.17;85.27
6038;BME280;3047;42.600;23.470;2023-03-19T03:28:51;93469.97;;;2.11;84.57
6038;BME280;3047;42.600;23.470;2023-03-19T03:31:18;93429.84;;;1.85;84.81
6038;BME280;3047;42.600;23.470;2023-03-19T03:33:47;93493.22;;;2.11;85.12
6038;BME280;3047;42.600;23.470;2023-03-19T03:36:13;93494.09;;;2.18;85.28
6038;BME280;3047;42.600;23.470;2023-03-19T03:38:40;93499.09;;;2.18;85.89
6038;BME280;3047;42.600;23.470;2023-03-19T03:41:07;93494.16;;;2.21;85.92
6038;BME280;3047;42.600;23.470;2023-03-19T03:43:33;93502.44;;;2.20;86.07
6038;BME280;3047;42.600;23.470;2023-03-19T03:46:00;93495.72;;;2.13;85.85
6038;BME280;3047;42.600;23.470;2023-03-19T03:48:27;93494.84;;;2.08;85.72
6038;BME280;3047;42.600;23.470;2023-03-19T03:50:55;93493.78;;;1.84;86.05
6038;BME280;3047;42.600;23.470;2023-03-19T03:53:21;93497.59;;;1.56;87.55
6038;BME280;3047;42.600;23.470;2023-03-19T03:55:48;93505.25;;;1.71;86.72
6038;BME280;3047;42.600;23.470;2023-03-19T03:58:15;93492.56;;;1.53;87.37
6038;BME280;3047;42.600;23.470;2023-03-19T04:00:42;93495.34;;;1.75;88.11
6038;BME280;3047;42.600;23.470;2023-03-19T04:03:09;93504.56;;;1.86;88.32
6038;BME280;3047;42.600;23.470;2023-03-19T04:05:35;93503.78;;;1.87;87.40
6038;BME280;3047;42.600;23.470;2023-03-19T04:08:04;93512.91;;;1.88;87.39
6038;BME280;3047;42.600;23.470;2023-03-19T04:10:31;93502.69;;;1.65;87.02
6038;BME280;3047;42.600;23.470;2023-03-19T04:13:00;93513.75;;;1.87;85.93
6038;BME280;3047;42.600;23.470;2023-03-19T04:15:27;93509.63;;;1.91;85.62
6038;BME280;3047;42.600;23.470;2023-03-19T04:17:53;93499.72;;;1.95;84.86
6038;BME280;3047;42.600;23.470;2023-03-19T04:20:20;93469.38;;;1.57;85.22
6038;BME280;3047;42.600;23.470;2023-03-19T04:22:47;93501.91;;;1.69;86.00
6038;BME280;3047;42.600;23.470;2023-03-19T04:25:16;93503.34;;;1.51;87.06
6038;BME280;3047;42.600;23.470;2023-03-19T04:27:43;93505.13;;;1.61;86.83
6038;BME280;3047;42.600;23.470;2023-03-19T04:30:11;93505.25;;;1.73;88.45
6038;BME280;3047;42.600;23.470;2023-03-19T04:32:39;93507.75;;;1.73;89.31
6038;BME280;3047;42.600;23.470;2023-03-19T04:35:06;93519.22;;;1.59;88.87
6038;BME280;3047;42.600;23.470;2023-03-19T04:37:33;93516.78;;;1.65;89.20
6038;BME280;3047;42.600;23.470;2023-03-19T04:40:00;93514.47;;;1.79;89.63
6038;BME280;3047;42.600;23.470;2023-03-19T04:42:28;93506.03;;;1.69;88.55
6038;BME280;3047;42.600;23.470;2023-03-19T04:44:55;93516.88;;;1.71;89.12
6038;BME280;3047;42.600;23.470;2023-03-19T04:47:22;93516.94;;;1.77;89.59
6038;BME280;3047;42.600;23.470;2023-03-19T04:49:48;93511.91;;;1.71;89.17
6038;BME280;3047;42.600;23.470;2023-03-19T04:52:15;93515.25;;;1.76;88.78
6038;BME280;3047;42.600;23.470;2023-03-19T04:54:42;93487.84;;;1.73;89.58
6038;BME280;3047;42.600;23.470;2023-03-19T04:57:09;93515.53;;;2.01;89.18
6038;BME280;3047;42.600;23.470;2023-03-19T04:59:38;93520.53;;;2.01;89.11
6038;BME280;3047;42.600;23.470;2023-03-19T05:02:05;93511.47;;;2.09;90.14
6038;BME280;3047;42.600;23.470;2023-03-19T05:04:31;93522.44;;;2.26;89.37
6038;BME280;3047;42.600;23.470;2023-03-19T05:06:58;93496.22;;;1.81;88.72
6038;BME280;3047;42.600;23.470;2023-03-19T05:09:25;93514.88;;;2.15;89.54
6038;BME280;3047;42.600;23.470;2023-03-19T05:11:51;93515.97;;;2.45;89.93
6038;BME280;3047;42.600;23.470;2023-03-19T05:14:18;93516.84;;;2.50;86.79
6038;BME280;3047;42.600;23.470;2023-03-19T05:16:46;93511.06;;;2.54;86.92
6038;BME280;3047;42.600;23.470;2023-03-19T05:19:13;93512.13;;;2.81;87.03
6038;BME280;3047;42.600;23.470;2023-03-19T05:21:40;93521.44;;;3.05;89.48
6038;BME280;3047;42.600;23.470;2023-03-19T05:24:07;93520.69;;;3.16;87.47
6038;BME280;3047;42.600;23.470;2023-03-19T05:26:34;93509.03;;;3.20;88.08
6038;BME280;3047;42.600;23.470;2023-03-19T05:29:02;93437.34;;;2.93;85.72
6038;BME280;3047;42.600;23.470;2023-03-19T05:31:29;93521.75;;;3.64;85.11
6038;BME280;3047;42.600;23.470;2023-03-19T05:33:57;93422.47;;;3.16;84.84
6038;BME280;3047;42.600;23.470;2023-03-19T05:36:24;93511.88;;;3.96;84.27
6038;BME280;3047;42.600;23.470;2023-03-19T05:38:50;93503.63;;;4.11;84.04
6038;BME280;3047;42.600;23.470;2023-03-19T05:41:17;93512.81;;;4.29;84.84
6038;BME280;3047;42.600;23.470;2023-03-19T05:43:44;93471.13;;;4.14;81.79
6038;BME280;3047;42.600;23.470;2023-03-19T05:46:10;93513.69;;;4.46;81.50
6038;BME280;3047;42.600;23.470;2023-03-19T05:48:37;93508.69;;;4.60;80.62
6038;BME280;3047;42.600;23.470;2023-03-19T05:51:05;93522.06;;;4.82;80.26
6038;BME280;3047;42.600;23.470;2023-03-19T05:53:33;93511.22;;;4.91;79.28
6038;BME280;3047;42.600;23.470;2023-03-19T05:55:59;93517.03;;;5.19;78.43
6038;BME280;3047;42.600;23.470;2023-03-19T05:58:26;93521.16;;;5.46;78.71
6038;BME280;3047;42.600;23.470;2023-03-19T06:00:53;93515.22;;;5.78;77.27
6038;BME280;3047;42.600;23.470;2023-03-19T06:03:22;93500.97;;;5.87;75.58
6038;BME280;3047;42.600;23.470;2023-03-19T06:05:49;93516.81;;;6.09;72.33
6038;BME280;3047;42.600;23.470;2023-03-19T06:08:18;93497.47;;;6.24;72.72
6038;BME280;3047;42.600;23.470;2023-03-19T06:10:45;93506.50;;;6.57;69.88
6038;BME280;3047;42.600;23.470;2023-03-19T06:13:12;93502.34;;;6.53;70.11
6038;BME280;3047;42.600;23.470;2023-03-19T06:15:38;93516.47;;;6.69;68.61
6038;BME280;3047;42.600;23.470;2023-03-19T06:18:05;93509.81;;;6.59;70.93
6038;BME280;3047;42.600;23.470;2023-03-19T06:20:32;93518.16;;;6.68;69.54
6038;BME280;3047;42.600;23.470;2023-03-19T06:22:59;93513.81;;;6.86;70.59
6038;BME280;3047;42.600;23.470;2023-03-19T06:25:27;93512.97;;;6.90;70.30
6038;BME280;3047;42.600;23.470;2023-03-19T06:27:54;93514.72;;;6.77;72.47
6038;BME280;3047;42.600;23.470;2023-03-19T06:30:21;93527.19;;;6.89;71.74
6038;BME280;3047;42.600;23.470;2023-03-19T06:32:47;93536.16;;;7.21;70.10
6038;BME280;3047;42.600;23.470;2023-03-19T06:35:14;93530.03;;;7.48;68.36
6038;BME280;3047;42.600;23.470;2023-03-19T06:37:41;93534.13;;;7.57;67.35
6038;BME280;3047;42.600;23.470;2023-03-19T06:40:09;93519.91;;;7.56;68.29
6038;BME280;3047;42.600;23.470;2023-03-19T06:42:37;93538.97;;;7.77;69.02
6038;BME280;3047;42.600;23.470;2023-03-19T06:45:05;93534.06;;;7.66;70.23
6038;BME280;3047;42.600;23.470;2023-03-19T06:47:32;93532.16;;;7.86;69.00
6038;BME280;3047;42.600;23.470;2023-03-19T06:49:58;93532.97;;;7.88;69.72
6038;BME280;3047;42.600;23.470;2023-03-19T06:52:25;93541.94;;;8.11;67.85
6038;BME280;3047;42.600;23.470;2023-03-19T06:54:52;93537.03;;;8.00;68.42
6038;BME280;3047;42.600;23.470;2023-03-19T06:57:19;93538.81;;;7.89;69.06
6038;BME280;3047;42.600;23.470;2023-03-19T06:59:47;93548.03;;;7.91;68.20
6038;BME280;3047;42.600;23.470;2023-03-19T07:02:13;93542.16;;;7.91;68.34
6038;BME280;3047;42.600;23.470;2023-03-19T07:04:41;93539.84;;;7.69;69.33
6038;BME280;3047;42.600;23.470;2023-03-19T07:07:07;93542.38;;;7.69;69.43
6038;BME280;3047;42.600;23.470;2023-03-19T07:09:34;93549.88;;;7.76;66.79
6038;BME280;3047;42.600;23.470;2023-03-19T07:12:01;93557.25;;;7.89;67.79
6038;BME280;3047;42.600;23.470;2023-03-19T07:14:28;93556.44;;;7.90;67.68
6038;BME280;3047;42.600;23.470;2023-03-19T07:16:56;93553.88;;;7.92;69.19
6038;BME280;3047;42.600;23.470;2023-03-19T07:19:23;93550.38;;;8.07;69.59
6038;BME280;3047;42.600;23.470;2023-03-19T07:21:49;93551.84;;;8.23;68.57
6038;BME280;3047;42.600;23.470;2023-03-19T07:24:16;93556.66;;;8.45;67.81
6038;BME280;3047;42.600;23.470;2023-03-19T07:26:43;93552.31;;;8.54;68.64
6038;BME280;3047;42.600;23.470;2023-03-19T07:29:10;93550.88;;;8.33;68.53
6038;BME280;3047;42.600;23.470;2023-03-19T07:31:37;93545.84;;;8.35;68.98
6038;BME280;3047;42.600;23.470;2023-03-19T07:34:05;93549.78;;;8.54;68.25
6038;BME280;3047;42.600;23.470;2023-03-19T07:36:32;93550.63;;;8.56;67.82
6038;BME280;3047;42.600;23.470;2023-03-19T07:38:59;93549.56;;;8.73;65.50
6038;BME280;3047;42.600;23.470;2023-03-19T07:41:25;93549.59;;;8.71;66.67
6038;BME280;3047;42.600;23.470;2023-03-19T07:43:52;93525.16;;;8.75;63.65
6038;BME280;3047;42.600;23.470;2023-03-19T07:46:19;93544.88;;;9.05;64.29
6038;BME280;3047;42.600;23.470;2023-03-19T07:48:45;93542.91;;;9.24;64.17
6038;BME280;3047;42.600;23.470;2023-03-19T07:51:13;93495.22;;;9.12;64.87
6038;BME280;3047;42.600;23.470;2023-03-19T07:53:40;93549.91;;;9.58;63.63
6038;BME280;3047;42.600;23.470;2023-03-19T07:56:07;93551.72;;;9.50;62.52
6038;BME280;3047;42.600;23.470;2023-03-19T07:58:34;93537.47;;;9.49;63.61
6038;BME280;3047;42.600;23.470;2023-03-19T08:01:01;93541.59;;;9.53;63.72
6038;BME280;3047;42.600;23.470;2023-03-19T08:03:27;93527.50;;;9.41;65.54
6038;BME280;3047;42.600;23.470;2023-03-19T08:05:56;93541.03;;;9.85;62.93
6038;BME280;3047;42.600;23.470;2023-03-19T08:08:24;93501.25;;;9.53;61.49
6038;BME280;3047;42.600;23.470;2023-03-19T08:10:52;93528.16;;;9.52;63.35
6038;BME280;3047;42.600;23.470;2023-03-19T08:13:19;93542.09;;;9.72;63.27
6038;BME280;3047;42.600;23.470;2023-03-19T08:15:47;93552.81;;;9.83;64.22
6038;BME280;3047;42.600;23.470;2023-03-19T08:18:14;93557.69;;;9.94;63.45
6038;BME280;3047;42.600;23.470;2023-03-19T08:20:43;93541.03;;;9.83;62.16
6038;BME280;3047;42.600;23.470;2023-03-19T08:23:10;93560.34;;;9.86;60.78
6038;BME280;3047;42.600;23.470;2023-03-19T08:25:38;93557.13;;;9.78;62.64
6038;BME280;3047;42.600;23.470;2023-03-19T08:28:05;93545.81;;;9.51;61.54
6038;BME280;3047;42.600;23.470;2023-03-19T08:30:34;93530.44;;;9.15;62.04
6038;BME280;3047;42.600;23.470;2023-03-19T08:33:01;93537.22;;;9.11;61.43
6038;BME280;3047;42.600;23.470;2023-03-19T08:35:28;93555.72;;;9.12;62.03
6038;BME280;3047;42.600;23.470;2023-03-19T08:37:55;93556.72;;;9.00;62.39
6038;BME280;3047;42.600;23.470;2023-03-19T08:40:22;93552.66;;;8.91;62.82
6038;BME280;3047;42.600;23.470;2023-03-19T08:42:50;93533.88;;;8.55;64.21
6038;BME280;3047;42.600;23.470;2023-03-19T08:45:18;93545.50;;;8.62;65.89
6038;BME280;3047;42.600;23.470;2023-03-19T08:47:45;93537.25;;;8.53;65.55
6038;BME280;3047;42.600;23.470;2023-03-19T08:50:12;93527.44;;;8.31;67.33
6038;BME280;3047;42.600;23.470;2023-03-19T08:52:39;93490.03;;;8.04;66.32
6038;BME280;3047;42.600;23.470;2023-03-19T08:55:07;93534.09;;;8.35;67.21
6038;BME280;3047;42.600;23.470;2023-03-19T08:57:34;93525.75;;;8.30;67.95
6038;BME280;3047;42.600;23.470;2023-03-19T09:00:02;93515.66;;;8.33;67.35
6038;BME280;3047;42.600;23.470;2023-03-19T09:02:30;93515.63;;;8.38;65.64
6038;BME280;3047;42.600;23.470;2023-03-19T09:04:57;93525.66;;;8.41;65.36
6038;BME280;3047;42.600;23.470;2023-03-19T09:07:23;93512.25;;;8.34;65.87
6038;BME280;3047;42.600;23.470;2023-03-19T09:09:50;93525.81;;;8.27;66.90
6038;BME280;3047;42.600;23.470;2023-03-19T09:12:17;93487.47;;;8.05;68.63
6038;BME280;3047;42.600;23.470;2023-03-19T09:14:44;93515.81;;;8.21;69.07
6038;BME280;3047;42.600;23.470;2023-03-19T09:17:12;93514.94;;;8.24;70.02
6038;BME280;3047;42.600;23.470;2023-03-19T09:19:39;93516.44;;;8.38;67.66
6038;BME280;3047;42.600;23.470;2023-03-19T09:22:06;93507.97;;;8.46;67.43
6038;BME280;3047;42.600;23.470;2023-03-19T09:24:33;93507.72;;;8.62;69.31
6038;BME280;3047;42.600;23.470;2023-03-19T09:27:00;93489.44;;;8.51;69.99
6038;BME280;3047;42.600;23.470;2023-03-19T09:29:27;93481.75;;;8.60;67.83
6038;BME280;3047;42.600;23.470;2023-03-19T09:31:54;93520.19;;;8.72;68.47
6038;BME280;3047;42.600;23.470;2023-03-19T09:34:22;93518.47;;;8.75;67.67
6038;BME280;3047;42.600;23.470;2023-03-19T09:36:49;93523.53;;;8.72;68.23
6038;BME280;3047;42.600;23.470;2023-03-19T09:39:15;93512.47;;;8.82;70.07
6038;BME280;3047;42.600;23.470;2023-03-19T09:41:49;93518.09;;;9.00;69.15
6038;BME280;3047;42.600;23.470;2023-03-19T09:44:27;93516.19;;;9.14;68.48
6038;BME280;3047;42.600;23.470;2023-03-19T09:46:58;93509.25;;;9.27;68.72
6038;BME280;3047;42.600;23.470;2023-03-19T09:49:33;93499.16;;;9.27;69.78
6038;BME280;3047;42.600;23.470;2023-03-19T09:52:11;93507.25;;;9.46;68.23
6038;BME280;3047;42.600;23.470;2023-03-19T09:54:47;93507.09;;;9.55;68.59
6038;BME280;3047;42.600;23.470;2023-03-19T09:57:17;93493.00;;;9.89;66.47
6038;BME280;3047;42.600;23.470;2023-03-19T09:59:44;93501.78;;;10.12;62.24
6038;BME280;3047;42.600;23.470;2023-03-19T10:02:28;93494.06;;;10.20;63.92
6038;BME280;3047;42.600;23.470;2023-03-19T10:05:09;93450.63;;;10.04;63.34
6038;BME280;3047;42.600;23.470;2023-03-19T10:07:52;93468.00;;;10.19;63.22
6038;BME280;3047;42.600;23.470;2023-03-19T10:10:33;93494.41;;;10.45;61.55
6038;BME280;3047;42.600;23.470;2023-03-19T10:13:09;93470.41;;;10.66;62.92
6038;BME280;3047;42.600;23.470;2023-03-19T10:15:43;93490.34;;;10.78;59.64
6038;BME280;3047;42.600;23.470;2023-03-19T10:18:15;93480.22;;;10.78;60.54
6038;BME280;3047;42.600;23.470;2023-03-19T10:20:47;93459.91;;;10.81;60.86
6038;BME280;3047;42.600;23.470;2023-03-19T10:23:29;93447.69;;;11.00;61.76
6038;BME280;3047;42.600;23.470;2023-03-19T10:26:01;93445.00;;;11.06;62.21
6038;BME280;3047;42.600;23.470;2023-03-19T10:28:29;93451.94;;;11.32;62.38
6038;BME280;3047;42.600;23.470;2023-03-19T10:31:03;93463.84;;;11.61;57.78
6038;BME280;3047;42.600;23.470;2023-03-19T10:33:40;93437.78;;;11.57;59.25
6038;BME280;3047;42.600;23.470;2023-03-19T10:36:11;93465.00;;;11.80;57.22
6038;BME280;3047;42.600;23.470;2023-03-19T10:38:39;93461.41;;;11.89;57.00
6038;BME280;3047;42.600;23.470;2023-03-19T10:41:19;93451.84;;;12.00;57.85
6038;BME280;3047;42.600;23.470;2023-03-19T10:43:52;93450.59;;;12.13;56.97
6038;BME280;3047;42.600;23.470;2023-03-19T10:46:19;93452.13;;;12.19;57.67
6038;BME280;3047;42.600;23.470;2023-03-19T10:48:47;93447.50;;;12.33;57.05
6038;BME280;3047;42.600;23.470;2023-03-19T10:51:19;93441.59;;;12.33;57.50
6038;BME280;3047;42.600;23.470;2023-03-19T10:53:47;93444.81;;;12.38;56.19
6038;BME280;3047;42.600;23.470;2023-03-19T10:56:18;93441.91;;;12.52;53.56
6038;BME280;3047;42.600;23.470;2023-03-19T10:59:01;93427.03;;;12.68;54.70
6038;BME280;3047;42.600;23.470;2023-03-19T11:01:32;93401.00;;;12.62;54.93
6038;BME280;3047;42.600;23.470;2023-03-19T11:04:00;93418.72;;;12.91;55.27
6038;BME280;3047;42.600;23.470;2023-03-19T11:06:31;93418.16;;;13.07;53.15
6038;BME280;3047;42.600;23.470;2023-03-19T11:08:59;93413.63;;;13.17;53.53
6038;BME280;3047;42.600;23.470;2023-03-19T11:11:32;93389.59;;;13.02;53.15
6038;BME280;3047;42.600;23.470;2023-03-19T11:14:06;93402.31;;;13.27;51.89
6038;BME280;3047;42.600;23.470;2023-03-19T11:16:46;93398.44;;;13.42;53.76
6038;BME280;3047;42.600;23.470;2023-03-19T11:19:21;93322.50;;;13.11;55.25
6038;BME280;3047;42.600;23.470;2023-03-19T11:22:08;93394.81;;;13.73;50.64
6038;BME280;3047;42.600;23.470;2023-03-19T11:24:36;93386.47;;;13.93;53.12
6038;BME280;3047;42.600;23.470;2023-03-19T11:27:04;93377.94;;;13.95;53.47
6038;BME280;3047;42.600;23.470;2023-03-19T11:29:31;93374.22;;;14.04;49.67
6038;BME280;3047;42.600;23.470;2023-03-19T11:32:08;93354.97;;;13.98;50.76
6038;BME280;3047;42.600;23.470;2023-03-19T11:34:44;93368.31;;;14.25;52.04
6038;BME280;3047;42.600;23.470;2023-03-19T11:37:21;93367.28;;;14.31;51.64
6038;BME280;3047;42.600;23.470;2023-03-19T11:39:57;93361.31;;;14.54;51.41
6038;BME280;3047;42.600;23.470;2023-03-19T11:45:29;93364.38;;;14.62;50.49
6038;BME280;3047;42.600;23.470;2023-03-19T11:50:49;93351.97;;;14.32;49.25
6038;BME280;3047;42.600;23.470;2023-03-19T11:53:24;93323.78;;;14.39;48.74
6038;BME280;3047;42.600;23.470;2023-03-19T11:56:01;93335.72;;;14.37;49.20
6038;BME280;3047;42.600;23.470;2023-03-19T11:58:54;93334.38;;;14.50;51.35
6038;BME280;3047;42.600;23.470;2023-03-19T12:04:47;93330.34;;;14.44;49.29
6038;BME280;3047;42.600;23.470;2023-03-19T12:07:24;93325.69;;;14.55;48.27
6038;BME280;3047;42.600;23.470;2023-03-19T12:10:02;93328.38;;;14.73;48.94
6038;BME280;3047;42.600;23.470;2023-03-19T12:12:41;93327.38;;;14.97;50.67
6038;BME280;3047;42.600;23.470;2023-03-19T12:15:19;93329.09;;;14.97;50.20
6038;BME280;3047;42.600;23.470;2023-03-19T12:17:57;93319.94;;;15.13;50.27
6038;BME280;3047;42.600;23.470;2023-03-19T12:20:42;93309.25;;;15.05;50.65
6038;BME280;3047;42.600;23.470;2023-03-19T12:23:26;93312.91;;;15.18;47.79
6038;BME280;3047;42.600;23.470;2023-03-19T12:26:01;93296.00;;;15.17;48.45
6038;BME280;3047;42.600;23.470;2023-03-19T12:28:32;93313.63;;;15.22;47.58
6038;BME280;3047;42.600;23.470;2023-03-19T12:31:24;93307.50;;;15.26;48.02
6038;BME280;3047;42.600;23.470;2023-03-19T12:34:06;93297.44;;;15.23;50.03
6038;BME280;3047;42.600;23.470;2023-03-19T12:36:40;93294.25;;;15.19;49.06
6038;BME280;3047;42.600;23.470;2023-03-19T12:39:15;93299.06;;;15.25;48.60
6038;BME280;3047;42.600;23.470;2023-03-19T12:41:45;93296.25;;;15.31;49.05
6038;BME280;3047;42.600;23.470;2023-03-19T12:44:18;93293.34;;;15.39;50.32
6038;BME280;3047;42.600;23.470;2023-03-19T12:46:52;93294.69;;;15.48;50.97
6038;BME280;3047;42.600;23.470;2023-03-19T12:49:24;93292.63;;;15.56;51.78
6038;BME280;3047;42.600;23.470;2023-03-19T12:51:58;93295.34;;;15.51;50.16
6038;BME280;3047;42.600;23.470;2023-03-19T12:54:30;93288.91;;;15.44;50.04
6038;BME280;3047;42.600;23.470;2023-03-19T12:57:06;93269.56;;;15.40;49.05
6038;BME280;3047;42.600;23.470;2023-03-19T12:59:39;93286.78;;;15.54;49.63
6038;BME280;3047;42.600;23.470;2023-03-19T13:02:11;93290.44;;;15.48;47.97
6038;BME280;3047;42.600;23.470;2023-03-19T13:04:51;93273.19;;;15.34;48.80
6038;BME280;3047;42.600;23.470;2023-03-19T13:07:24;93273.97;;;15.37;49.46
6038;BME280;3047;42.600;23.470;2023-03-19T13:09:57;93265.88;;;15.27;48.29
6038;BME280;3047;42.600;23.470;2023-03-19T13:12:28;93286.13;;;15.30;48.93
6038;BME280;3047;42.600;23.470;2023-03-19T13:14:59;93233.38;;;14.94;47.47
6038;BME280;3047;42.600;23.470;2023-03-19T13:17:33;93280.28;;;15.28;49.34
6038;BME280;3047;42.600;23.470;2023-03-19T13:20:12;93266.91;;;15.23;48.28
6038;BME280;3047;42.600;23.470;2023-03-19T13:22:40;93258.75;;;15.16;46.44
6038;BME280;3047;42.600;23.470;2023-03-19T13:25:14;93216.06;;;14.83;48.34
6038;BME280;3047;42.600;23.470;2023-03-19T13:27:51;93275.56;;;15.19;46.97
6038;BME280;3047;42.600;23.470;2023-03-19T13:30:20;93269.75;;;15.17;48.97
6038;BME280;3047;42.600;23.470;2023-03-19T13:32:49;93268.09;;;15.16;48.43
6038;BME280;3047;42.600;23.470;2023-03-19T13:35:34;93270.00;;;15.11;47.37
6038;BME280;3047;42.600;23.470;2023-03-19T13:38:09;93245.22;;;14.95;48.68
6038;BME280;3047;42.600;23.470;2023-03-19T13:40:40;93258.25;;;15.08;48.85